createdAt,value
2023-08-16T00:02:24.241Z,82.68
2023-08-16T00:05:07.774Z,83.01
2023-08-16T00:07:52.323Z,83.40
2023-08-16T00:10:35.500Z,83.34
2023-08-16T00:13:17.612Z,83.90
2023-08-16T00:16:01.028Z,83.59
2023-08-16T00:18:44.859Z,84.52
2023-08-16T00:21:27.929Z,85.42
2023-08-16T00:24:12.397Z,85.52
2023-08-16T00:26:55.514Z,86.25
2023-08-16T00:29:38.612Z,86.86
2023-08-16T00:32:21.739Z,87.47
2023-08-16T00:35:04.905Z,88.18
2023-08-16T00:37:47.974Z,88.55
2023-08-16T00:40:32.407Z,89.23
2023-08-16T00:43:15.518Z,89.66
2023-08-16T00:45:58.705Z,90.33
2023-08-16T00:48:44.316Z,90.75
2023-08-16T00:51:27.467Z,91.56
2023-08-16T00:54:10.688Z,92.32
2023-08-16T00:56:55.393Z,92.66
2023-08-16T00:59:38.727Z,93.53
2023-08-16T01:02:22.412Z,93.99
2023-08-16T01:05:08.272Z,94.18
2023-08-16T01:07:51.759Z,94.91
2023-08-16T01:10:41.831Z,94.76
2023-08-16T01:13:31.290Z,95.46
2023-08-16T01:16:14.341Z,95.05
2023-08-16T01:18:59.624Z,94.79
2023-08-16T01:21:48.890Z,93.84
2023-08-16T01:24:39.443Z,93.19
2023-08-16T01:27:24.548Z,92.35
2023-08-16T01:30:09.627Z,92.00
2023-08-16T01:32:52.709Z,91.79
2023-08-16T01:35:36.533Z,92.07
2023-08-16T01:38:19.692Z,92.10
2023-08-16T01:41:07.917Z,91.76
2023-08-16T01:43:53.846Z,92.60
2023-08-16T01:46:39.943Z,92.79
2023-08-16T01:49:24.850Z,92.83
2023-08-16T01:52:08.760Z,93.75
2023-08-16T01:54:51.857Z,94.21
2023-08-16T01:57:34.867Z,94.52
2023-08-16T02:00:19.730Z,94.43
2023-08-16T02:03:02.865Z,94.48
2023-08-16T02:05:46.025Z,94.20
2023-08-16T02:08:29.141Z,94.17
2023-08-16T02:11:12.242Z,93.87
2023-08-16T02:13:55.299Z,93.88
2023-08-16T02:16:39.837Z,94.23
2023-08-16T02:19:22.805Z,94.45
2023-08-16T02:22:06.031Z,94.51
2023-08-16T02:24:49.133Z,94.49
2023-08-16T02:27:34.599Z,94.54
2023-08-16T02:30:17.801Z,94.27
2023-08-16T02:33:02.388Z,91.61
2023-08-16T02:35:45.666Z,90.29
2023-08-16T02:38:29.255Z,89.58
2023-08-16T02:41:12.387Z,88.70
2023-08-16T02:43:55.598Z,89.28
2023-08-16T02:46:38.714Z,90.24
2023-08-16T02:49:23.270Z,90.83
2023-08-16T02:52:06.734Z,91.58
2023-08-16T02:54:49.923Z,90.29
2023-08-16T02:57:33.028Z,90.02
2023-08-16T03:00:17.465Z,90.63
2023-08-16T03:03:00.591Z,91.45
2023-08-16T03:05:45.223Z,90.48
2023-08-16T03:08:28.312Z,89.38
2023-08-16T03:11:11.504Z,88.95
2023-08-16T03:13:54.594Z,89.84
2023-08-16T03:16:37.812Z,91.29
2023-08-16T03:19:20.935Z,91.92
2023-08-16T03:22:05.694Z,92.10
2023-08-16T03:24:48.863Z,92.03
2023-08-16T03:27:32.017Z,92.84
2023-08-16T03:30:15.119Z,92.25
2023-08-16T03:32:58.365Z,92.69
2023-08-16T03:35:41.492Z,92.50
2023-08-16T03:38:25.972Z,92.95
2023-08-16T03:41:09.377Z,93.33
2023-08-16T03:43:52.575Z,92.80
2023-08-16T03:46:35.903Z,93.13
2023-08-16T03:49:19.055Z,93.35
2023-08-16T03:52:02.115Z,91.93
2023-08-16T03:54:46.584Z,91.78
2023-08-16T03:57:29.618Z,91.81
2023-08-16T04:00:13.360Z,92.01
2023-08-16T04:02:56.619Z,92.58
2023-08-16T04:05:39.703Z,92.77
2023-08-16T04:08:22.890Z,93.13
2023-08-16T04:11:07.488Z,92.28
2023-08-16T04:13:50.604Z,91.80
2023-08-16T04:16:33.831Z,92.56
2023-08-16T04:19:17.014Z,93.01
2023-08-16T04:22:00.105Z,92.90
2023-08-16T04:24:43.278Z,92.98
2023-08-16T04:27:27.822Z,93.99
2023-08-16T04:30:12.408Z,93.17
2023-08-16T04:32:55.561Z,90.84
2023-08-16T04:35:38.921Z,89.35
2023-08-16T04:38:22.142Z,88.31
2023-08-16T04:41:05.263Z,86.45
2023-08-16T04:43:49.736Z,86.47
2023-08-16T04:46:32.804Z,86.04
2023-08-16T04:49:16.427Z,85.90
2023-08-16T04:51:59.581Z,84.93
2023-08-16T04:54:42.653Z,84.44
2023-08-16T04:57:27.147Z,83.78
2023-08-16T05:00:13.454Z,82.99
2023-08-16T05:02:56.566Z,83.27
2023-08-16T05:05:39.826Z,81.91
2023-08-16T05:08:22.937Z,81.26
2023-08-16T05:11:06.045Z,79.99
2023-08-16T05:13:49.250Z,79.17
2023-08-16T05:16:33.819Z,78.15
2023-08-16T05:19:16.939Z,78.00
2023-08-16T05:22:00.098Z,76.75
2023-08-16T05:24:43.213Z,75.80
2023-08-16T05:27:26.499Z,74.89
2023-08-16T05:30:10.424Z,74.07
2023-08-16T05:32:56.964Z,72.75
2023-08-16T05:35:40.139Z,72.48
2023-08-16T05:38:23.900Z,72.06
2023-08-16T05:41:07.041Z,71.53
2023-08-16T05:43:50.215Z,71.35
2023-08-16T05:46:33.432Z,71.84
2023-08-16T05:49:17.979Z,70.12
2023-08-16T05:52:01.005Z,70.53
2023-08-16T05:54:44.204Z,70.65
2023-08-16T05:57:27.400Z,70.13
2023-08-16T06:00:12.061Z,70.68
2023-08-16T06:02:55.592Z,70.91
2023-08-16T06:05:41.342Z,70.99
2023-08-16T06:08:24.394Z,70.66
2023-08-16T06:11:07.852Z,69.46
2023-08-16T06:13:50.865Z,68.83
2023-08-16T06:16:33.959Z,67.79
2023-08-16T06:19:17.232Z,66.84
2023-08-16T06:22:01.760Z,65.30
2023-08-16T06:24:45.439Z,65.16
2023-08-16T06:27:28.568Z,63.65
2023-08-16T06:30:13.210Z,64.74
2023-08-16T06:32:56.297Z,64.18
2023-08-16T06:35:39.416Z,64.78
2023-08-16T06:38:23.958Z,63.31
2023-08-16T06:41:07.130Z,62.24
2023-08-16T06:43:50.259Z,62.04
2023-08-16T06:46:33.626Z,60.20
2023-08-16T06:49:16.736Z,59.04
2023-08-16T06:51:59.793Z,59.54
2023-08-16T06:54:44.310Z,60.52
2023-08-16T06:57:27.281Z,59.29
2023-08-16T07:00:12.888Z,58.78
2023-08-16T07:02:56.075Z,57.77
2023-08-16T07:05:39.220Z,55.18
2023-08-16T07:08:22.365Z,54.62
2023-08-16T07:11:06.913Z,52.63
2023-08-16T07:13:50.062Z,51.79
2023-08-16T07:16:34.854Z,49.75
2023-08-16T07:19:19.606Z,49.17
2023-08-16T07:22:02.715Z,47.05
2023-08-16T07:24:45.866Z,45.04
2023-08-16T07:27:30.442Z,43.80
2023-08-16T07:30:14.717Z,44.18
2023-08-16T07:32:57.856Z,44.43
2023-08-16T07:35:40.881Z,44.43
2023-08-16T07:38:23.913Z,42.83
2023-08-16T07:41:07.367Z,40.61
2023-08-16T07:43:53.671Z,38.23
2023-08-16T07:46:36.732Z,36.36
2023-08-16T07:49:19.864Z,36.29
2023-08-16T07:52:02.920Z,35.34
2023-08-16T07:54:46.082Z,34.33
2023-08-16T07:57:29.158Z,32.56
2023-08-16T08:00:15.788Z,31.09
2023-08-16T08:03:00.992Z,31.06
2023-08-16T08:05:44.444Z,30.46
2023-08-16T08:08:27.617Z,29.20
2023-08-16T08:11:10.748Z,29.34
2023-08-16T08:13:53.904Z,28.59
2023-08-16T08:16:38.355Z,27.80
2023-08-16T08:19:21.505Z,27.65
2023-08-16T08:22:04.880Z,27.87
2023-08-16T08:24:47.960Z,26.49
2023-08-16T08:27:31.452Z,27.24
2023-08-16T08:30:16.232Z,26.83
2023-08-16T08:33:01.515Z,27.96
2023-08-16T08:35:44.959Z,27.88
2023-08-16T08:38:28.076Z,29.07
2023-08-16T08:41:11.573Z,30.93
2023-08-16T08:43:59.836Z,31.50
2023-08-16T08:46:45.379Z,32.08
2023-08-16T08:49:30.036Z,34.73
2023-08-16T08:52:14.356Z,34.67
2023-08-16T08:54:59.856Z,35.44
2023-08-16T08:57:43.065Z,36.07
2023-08-16T09:00:29.494Z,35.54
2023-08-16T09:03:13.859Z,34.27
2023-08-16T09:05:59.765Z,34.04
2023-08-16T09:08:45.037Z,34.79
2023-08-16T09:11:28.426Z,35.40
2023-08-16T09:14:11.609Z,37.06
2023-08-16T09:16:54.745Z,36.72
2023-08-16T09:19:45.284Z,38.61
2023-08-16T09:22:30.556Z,39.22
2023-08-16T09:25:13.663Z,39.27
2023-08-16T09:27:56.810Z,39.77
2023-08-16T09:30:40.298Z,39.20
2023-08-16T09:33:24.630Z,40.21
2023-08-16T09:36:08.178Z,40.71
2023-08-16T09:38:52.656Z,41.00
2023-08-16T09:41:36.048Z,41.20
2023-08-16T09:44:21.116Z,40.12
2023-08-16T09:47:15.314Z,39.34
2023-08-16T09:50:00.282Z,38.63
2023-08-16T09:52:44.040Z,35.16
2023-08-16T09:55:34.058Z,31.95
2023-08-16T09:58:19.384Z,29.18
2023-08-16T10:01:28.545Z,27.79
2023-08-16T10:09:43.990Z,26.20
2023-08-16T10:12:29.965Z,25.42
2023-08-16T10:15:13.443Z,24.47
2023-08-16T10:17:58.379Z,24.41
2023-08-16T10:20:47.010Z,23.92
2023-08-16T10:23:30.665Z,24.68
2023-08-16T10:26:16.041Z,24.33
2023-08-16T10:29:21.089Z,25.85
2023-08-16T10:32:08.945Z,25.61
2023-08-16T10:34:56.053Z,25.38
2023-08-16T10:37:40.760Z,25.31
2023-08-16T10:40:26.726Z,25.68
2023-08-16T10:43:11.425Z,25.08
2023-08-16T10:45:57.488Z,25.00
2023-08-16T10:48:40.997Z,25.25
2023-08-16T10:51:24.204Z,25.26
2023-08-16T10:54:07.622Z,25.38
2023-08-16T10:56:50.820Z,24.52
2023-08-16T10:59:40.426Z,26.02
2023-08-16T11:02:32.624Z,26.40
2023-08-16T11:05:20.572Z,26.34
2023-08-16T11:08:04.616Z,26.69
2023-08-16T11:10:47.754Z,29.69
2023-08-16T11:13:31.348Z,32.02
2023-08-16T11:16:14.505Z,32.87
2023-08-16T11:19:18.151Z,32.85
2023-08-16T11:22:03.370Z,34.93
2023-08-16T11:24:49.032Z,35.63
2023-08-16T11:27:32.157Z,36.28
2023-08-16T11:30:15.410Z,37.20
2023-08-16T11:32:58.498Z,38.05
2023-08-16T11:35:43.109Z,39.24
2023-08-16T11:38:26.194Z,39.49
2023-08-16T11:41:09.847Z,40.52
2023-08-16T11:44:01.332Z,39.37
2023-08-16T11:46:48.607Z,39.61
2023-08-16T11:49:32.057Z,39.96
2023-08-16T11:52:22.108Z,38.88
2023-08-16T11:55:07.246Z,40.54
2023-08-16T11:57:50.692Z,40.32
2023-08-16T12:00:35.750Z,40.03
2023-08-16T12:03:19.135Z,40.12
2023-08-16T12:06:07.172Z,40.17
2023-08-16T12:08:52.669Z,41.64
2023-08-16T12:11:37.155Z,41.63
2023-08-16T12:14:20.292Z,41.20
2023-08-16T12:17:03.468Z,43.02
2023-08-16T12:19:46.585Z,42.58
2023-08-16T12:22:29.737Z,43.15
2023-08-16T12:25:14.481Z,43.41
2023-08-16T12:27:57.594Z,43.87
2023-08-16T12:30:41.043Z,43.30
2023-08-16T12:33:24.135Z,43.86
2023-08-16T12:36:07.730Z,44.05
2023-08-16T12:38:50.853Z,44.03
2023-08-16T12:41:36.152Z,43.95
2023-08-16T12:44:19.380Z,43.94
2023-08-16T12:47:02.490Z,43.09
2023-08-16T12:49:45.633Z,43.42
2023-08-16T12:52:28.689Z,44.25
2023-08-16T12:55:11.819Z,43.17
2023-08-16T13:00:46.742Z,43.77
2023-08-16T13:03:32.765Z,43.81
2023-08-16T13:06:30.432Z,44.51
2023-08-16T13:09:26.380Z,44.66
2023-08-16T13:12:12.055Z,44.75
2023-08-16T13:15:06.337Z,45.69
2023-08-16T13:18:17.919Z,46.23
2023-08-16T13:20:58.792Z,45.75
2023-08-16T13:29:25.944Z,45.88
2023-08-16T13:35:10.931Z,45.92
2023-08-16T13:38:17.316Z,46.44
2023-08-16T13:43:50.408Z,46.01
2023-08-16T13:46:36.696Z,46.50
2023-08-16T13:49:21.234Z,46.45
2023-08-16T13:52:04.353Z,47.09
2023-08-16T13:54:47.478Z,46.66
2023-08-16T13:57:30.594Z,47.60
2023-08-16T14:00:14.426Z,47.55
2023-08-16T14:02:57.562Z,47.28
2023-08-16T14:05:42.055Z,47.33
2023-08-16T14:08:25.427Z,47.80
2023-08-16T14:11:08.508Z,47.15
2023-08-16T14:13:51.623Z,46.82
2023-08-16T14:16:37.121Z,46.22
2023-08-16T14:19:21.930Z,46.72
2023-08-16T14:22:06.505Z,46.18
2023-08-16T14:24:49.644Z,46.01
2023-08-16T14:27:32.701Z,46.17
2023-08-16T14:30:15.974Z,46.56
2023-08-16T14:33:00.616Z,45.91
2023-08-16T14:35:44.896Z,46.29
2023-08-16T14:38:29.408Z,46.29
2023-08-16T14:41:12.523Z,47.04
2023-08-16T14:43:55.695Z,48.39
2023-08-16T14:46:38.864Z,47.77
2023-08-16T14:49:22.005Z,47.96
2023-08-16T14:52:05.827Z,48.47
2023-08-16T14:54:51.008Z,48.40
2023-08-16T14:57:35.331Z,48.49
2023-08-16T15:00:18.854Z,48.64
2023-08-16T15:03:05.288Z,48.91
2023-08-16T15:05:48.519Z,49.22
2023-08-16T15:08:31.964Z,49.84
2023-08-16T15:11:17.625Z,50.65
2023-08-16T15:14:01.062Z,51.34
2023-08-16T15:16:44.243Z,51.62
2023-08-16T15:19:27.381Z,51.97
2023-08-16T15:22:10.647Z,51.70
2023-08-16T15:24:54.366Z,52.43
2023-08-16T15:27:38.872Z,52.12
2023-08-16T15:30:21.956Z,52.76
2023-08-16T15:33:05.531Z,52.78
2023-08-16T15:35:48.693Z,53.04
2023-08-16T15:38:44.209Z,53.69
2023-08-16T15:41:27.350Z,53.18
2023-08-16T15:44:11.954Z,53.43
2023-08-16T15:46:55.948Z,53.91
2023-08-16T15:49:39.269Z,54.27
2023-08-16T15:52:22.364Z,54.30
2023-08-16T15:55:06.590Z,54.27
2023-08-16T15:57:49.916Z,54.70
2023-08-16T16:00:34.312Z,54.44
2023-08-16T16:03:17.404Z,54.70
2023-08-16T16:06:00.812Z,54.53
2023-08-16T16:08:43.868Z,55.25
2023-08-16T16:11:29.495Z,55.14
2023-08-16T16:14:12.914Z,55.63
2023-08-16T16:17:25.638Z,55.97
2023-08-16T16:20:11.737Z,56.66
2023-08-16T16:22:56.925Z,56.93
2023-08-16T16:25:40.318Z,57.15
2023-08-16T16:28:23.389Z,57.01
2023-08-16T16:31:07.387Z,57.57
2023-08-16T16:33:51.970Z,57.64
2023-08-16T16:36:35.024Z,57.67
2023-08-16T16:39:18.145Z,57.89
2023-08-16T16:42:02.618Z,58.50
2023-08-16T16:44:46.069Z,58.97
2023-08-16T16:47:29.394Z,59.01
2023-08-16T16:50:13.908Z,59.64
2023-08-16T16:52:57.087Z,60.02
2023-08-16T16:55:40.480Z,60.24
2023-08-16T16:58:23.489Z,60.59
2023-08-16T17:01:06.801Z,60.59
2023-08-16T17:03:50.106Z,61.02
2023-08-16T17:06:34.616Z,61.26
2023-08-16T17:09:17.718Z,61.63
2023-08-16T17:12:01.621Z,62.21
2023-08-16T17:14:44.802Z,62.71
2023-08-16T17:17:28.368Z,62.95
2023-08-16T17:20:12.364Z,63.30
2023-08-16T17:22:57.307Z,63.54
2023-08-16T17:25:43.895Z,63.71
2023-08-16T17:28:27.077Z,64.38
2023-08-16T17:31:11.916Z,64.44
2023-08-16T17:33:55.949Z,64.53
2023-08-16T17:36:39.096Z,64.64
2023-08-16T17:39:24.703Z,65.23
2023-08-16T17:42:07.951Z,65.14
2023-08-16T17:44:51.196Z,65.09
2023-08-16T17:47:37.164Z,65.35
2023-08-16T17:50:21.340Z,65.48
2023-08-16T17:53:04.635Z,64.99
2023-08-16T17:55:49.229Z,65.16
2023-08-16T17:58:32.754Z,65.56
2023-08-16T18:01:16.632Z,65.25
2023-08-16T18:03:59.898Z,65.34
2023-08-16T18:06:43.102Z,66.64
2023-08-16T18:09:26.355Z,66.42
2023-08-16T18:12:11.410Z,66.62
2023-08-16T18:14:54.585Z,65.99
2023-08-16T18:17:37.747Z,65.78
2023-08-16T18:20:21.561Z,66.49
2023-08-16T18:23:04.955Z,65.39
2023-08-16T18:25:48.121Z,65.33
2023-08-16T18:28:32.671Z,64.80
2023-08-16T18:31:16.423Z,64.45
2023-08-16T18:34:00.295Z,64.31
2023-08-16T18:36:43.362Z,64.56
2023-08-16T18:39:27.003Z,64.81
2023-08-16T18:42:10.315Z,65.34
2023-08-16T18:44:54.874Z,65.62
2023-08-16T18:47:38.380Z,65.85
2023-08-16T18:50:22.300Z,65.90
2023-08-16T18:53:05.769Z,65.46
2023-08-16T18:55:49.068Z,65.92
2023-08-16T18:58:32.142Z,65.72
2023-08-16T19:01:18.835Z,66.48
2023-08-16T19:04:02.071Z,66.54
2023-08-16T19:06:45.265Z,67.11
2023-08-16T19:09:28.439Z,67.06
2023-08-16T19:12:11.648Z,66.74
2023-08-16T19:14:54.740Z,67.32
2023-08-16T19:17:40.831Z,69.22
2023-08-16T19:20:23.970Z,68.97
2023-08-16T19:23:07.215Z,68.83
2023-08-16T19:25:50.311Z,68.63
2023-08-16T19:28:34.235Z,69.43
2023-08-16T19:31:17.288Z,69.38
2023-08-16T19:34:01.988Z,70.07
2023-08-16T19:36:45.507Z,69.62
2023-08-16T19:39:28.808Z,69.27
2023-08-16T19:42:11.911Z,69.56
2023-08-16T19:44:55.232Z,68.60
2023-08-16T19:47:38.437Z,68.86
2023-08-16T19:50:24.594Z,69.18
2023-08-16T19:53:08.029Z,68.78
2023-08-16T19:55:54.148Z,69.64
2023-08-16T19:58:37.321Z,69.01
2023-08-16T20:01:23.193Z,70.14
2023-08-16T20:04:06.651Z,70.42
2023-08-16T20:06:51.243Z,70.51
2023-08-16T20:09:34.404Z,70.94
2023-08-16T20:12:17.573Z,70.63
2023-08-16T20:15:01.128Z,71.29
2023-08-16T20:17:44.462Z,71.37
2023-08-16T20:20:27.696Z,71.82
2023-08-16T20:23:12.197Z,71.43
2023-08-16T20:25:55.329Z,72.63
2023-08-16T20:28:38.764Z,72.95
2023-08-16T20:31:21.987Z,73.31
2023-08-16T20:34:05.448Z,73.17
2023-08-16T20:36:48.676Z,73.20
2023-08-16T20:39:33.698Z,73.56
2023-08-16T20:42:33.451Z,74.10
2023-08-16T20:45:16.750Z,73.83
2023-08-16T20:47:59.976Z,74.20
2023-08-16T20:50:43.146Z,74.12
2023-08-16T20:53:26.373Z,74.34
2023-08-16T20:56:10.902Z,74.50
2023-08-16T20:58:53.977Z,74.66
2023-08-16T21:01:42.136Z,74.96
2023-08-16T21:04:26.883Z,75.27
2023-08-16T21:07:10.318Z,75.81
2023-08-16T21:09:54.291Z,75.78
2023-08-16T21:12:38.801Z,76.46
2023-08-16T21:15:21.956Z,76.39
2023-08-16T21:18:05.539Z,76.42
2023-08-16T21:20:48.765Z,76.79
2023-08-16T21:23:31.787Z,76.99
2023-08-16T21:26:14.902Z,77.21
2023-08-16T21:28:59.565Z,76.99
2023-08-16T21:31:42.820Z,77.16
2023-08-16T21:34:26.050Z,76.79
2023-08-16T21:37:09.219Z,77.60
2023-08-16T21:39:52.675Z,77.97
2023-08-16T21:42:38.898Z,78.29
2023-08-16T21:45:23.378Z,77.62
2023-08-16T21:48:07.683Z,78.26
2023-08-16T21:50:50.832Z,79.13
2023-08-16T21:53:33.861Z,79.34
2023-08-16T21:56:19.021Z,79.10
2023-08-16T21:59:02.108Z,79.56
2023-08-16T22:01:46.596Z,79.35
2023-08-16T22:04:30.114Z,79.46
2023-08-16T22:07:13.197Z,80.15
2023-08-16T22:09:56.296Z,79.65
2023-08-16T22:12:39.327Z,79.72
2023-08-16T22:15:24.717Z,79.89
2023-08-16T22:18:09.252Z,79.96
2023-08-16T22:21:02.222Z,80.10
2023-08-16T22:23:47.429Z,80.70
2023-08-16T22:26:30.535Z,80.79
2023-08-16T22:29:14.100Z,80.71
2023-08-16T22:31:57.243Z,80.81
2023-08-16T22:34:41.742Z,80.79
2023-08-16T22:37:25.295Z,81.09
2023-08-16T22:40:10.092Z,80.48
2023-08-16T22:42:53.178Z,80.42
2023-08-16T22:45:36.288Z,79.74
2023-08-16T22:48:19.389Z,79.53
2023-08-16T22:51:04.074Z,78.89
2023-08-16T22:53:47.139Z,78.28
2023-08-16T22:56:30.434Z,77.85
2023-08-16T22:59:13.556Z,76.25
2023-08-16T23:01:56.863Z,75.68
2023-08-16T23:04:39.948Z,75.19
2023-08-16T23:07:24.691Z,74.78
2023-08-16T23:10:09.536Z,74.22
2023-08-16T23:12:52.660Z,74.14
2023-08-16T23:15:35.887Z,74.01
2023-08-16T23:18:18.991Z,74.03
2023-08-16T23:21:02.233Z,74.09
2023-08-16T23:23:46.805Z,73.97
2023-08-16T23:26:29.934Z,74.40
2023-08-16T23:29:12.979Z,74.49
2023-08-16T23:31:56.109Z,74.84
2023-08-16T23:34:39.256Z,74.77
2023-08-16T23:37:22.431Z,75.19
2023-08-16T23:40:08.326Z,75.39
2023-08-16T23:42:52.426Z,76.39
2023-08-16T23:45:35.547Z,77.12
2023-08-16T23:48:18.687Z,78.04
2023-08-16T23:51:01.854Z,78.25
2023-08-16T23:53:44.916Z,78.27
2023-08-16T23:56:29.674Z,79.00
2023-08-16T23:59:12.775Z,78.93
